createdAt,value
2023-01-19T00:00:55.735Z,5.20
2023-01-19T00:03:22.397Z,5.10
2023-01-19T00:05:49.597Z,5.10
2023-01-19T00:08:17.459Z,5.10
2023-01-19T00:10:46.595Z,5.10
2023-01-19T00:13:14.882Z,5.00
2023-01-19T00:15:41.588Z,5.10
2023-01-19T00:18:10.753Z,5.10
2023-01-19T00:20:38.296Z,5.20
2023-01-19T00:23:07.500Z,5.20
2023-01-19T00:25:34.201Z,5.20
2023-01-19T00:28:01.882Z,5.20
2023-01-19T00:30:28.918Z,5.10
2023-01-19T00:32:56.122Z,5.10
2023-01-19T00:35:22.876Z,5.00
2023-01-19T00:37:49.585Z,5.00
2023-01-19T00:40:17.102Z,4.90
2023-01-19T00:42:48.670Z,4.90
2023-01-19T00:45:20.988Z,5.00
2023-01-19T00:47:50.137Z,5.00
2023-01-19T00:50:17.551Z,5.10
2023-01-19T00:52:45.350Z,5.20
2023-01-19T00:55:14.320Z,5.20
2023-01-19T00:57:45.056Z,5.20
2023-01-19T01:00:15.107Z,5.30
2023-01-19T01:02:43.912Z,5.10
2023-01-19T01:05:11.991Z,5.00
2023-01-19T01:07:44.504Z,5.00
2023-01-19T01:10:12.196Z,5.00
2023-01-19T01:12:39.567Z,4.90
2023-01-19T01:15:17.901Z,4.90
2023-01-19T01:17:56.618Z,4.80
2023-01-19T01:20:27.250Z,4.80
2023-01-19T01:22:54.912Z,4.80
2023-01-19T01:25:27.359Z,4.70
2023-01-19T01:27:54.736Z,5.20
2023-01-19T01:30:21.827Z,4.80
2023-01-19T01:32:48.983Z,4.90
2023-01-19T01:35:16.870Z,4.90
2023-01-19T01:37:49.773Z,4.90
2023-01-19T01:40:20.823Z,4.90
2023-01-19T01:42:47.464Z,4.90
2023-01-19T01:45:35.656Z,5.00
2023-01-19T01:48:09.009Z,5.00
2023-01-19T01:51:08.260Z,4.90
2023-01-19T01:53:40.184Z,4.90
2023-01-19T01:56:14.845Z,4.80
2023-01-19T01:58:42.198Z,4.80
2023-01-19T02:01:29.092Z,4.80
2023-01-19T02:03:57.309Z,4.80
2023-01-19T02:06:24.545Z,6.00
2023-01-19T02:09:20.695Z,4.80
2023-01-19T02:12:06.803Z,4.70
2023-01-19T02:14:37.585Z,4.60
2023-01-19T02:17:07.810Z,4.70
2023-01-19T02:19:41.932Z,4.80
2023-01-19T02:22:21.109Z,4.80
2023-01-19T02:24:49.851Z,4.90
2023-01-19T02:27:17.596Z,4.90
2023-01-19T02:29:44.471Z,4.90
2023-01-19T02:32:11.562Z,4.80
2023-01-19T02:34:38.374Z,4.80
2023-01-19T02:37:12.536Z,4.70
2023-01-19T02:39:55.686Z,4.70
2023-01-19T02:42:33.434Z,4.70
2023-01-19T02:45:00.873Z,4.60
2023-01-19T02:47:27.731Z,4.50
2023-01-19T02:49:59.335Z,4.40
2023-01-19T02:52:27.017Z,4.40
2023-01-19T02:55:24.516Z,4.40
2023-01-19T02:57:57.133Z,4.40
2023-01-19T03:01:01.650Z,4.40
2023-01-19T03:03:40.395Z,4.40
2023-01-19T03:06:31.419Z,4.40
2023-01-19T03:09:41.495Z,4.50
2023-01-19T03:12:38.985Z,4.60
2023-01-19T03:15:22.796Z,4.60
2023-01-19T03:17:51.226Z,4.60
2023-01-19T03:20:22.698Z,4.50
2023-01-19T03:22:53.292Z,4.50
2023-01-19T03:25:23.034Z,4.50
2023-01-19T03:27:53.998Z,4.50
2023-01-19T03:30:28.964Z,4.80
2023-01-19T03:33:03.184Z,4.70
2023-01-19T03:35:33.199Z,4.60
2023-01-19T03:38:02.022Z,4.60
2023-01-19T03:40:32.056Z,4.50
2023-01-19T03:43:01.294Z,4.50
2023-01-19T03:45:28.553Z,4.50
2023-01-19T03:47:55.354Z,4.50
2023-01-19T03:50:27.190Z,4.40
2023-01-19T03:53:13.743Z,4.40
2023-01-19T03:55:43.225Z,4.30
2023-01-19T03:58:10.208Z,4.30
2023-01-19T04:00:37.736Z,4.20
2023-01-19T04:03:06.144Z,4.20
2023-01-19T04:05:33.545Z,4.30
2023-01-19T04:08:00.698Z,4.30
2023-01-19T04:10:27.428Z,4.40
2023-01-19T04:12:59.022Z,4.40
2023-01-19T04:15:26.593Z,4.40
2023-01-19T04:17:53.277Z,4.40
2023-01-19T04:20:21.727Z,4.50
2023-01-19T04:22:49.630Z,4.50
2023-01-19T04:25:16.347Z,4.50
2023-01-19T04:27:43.085Z,4.50
2023-01-19T04:30:10.557Z,4.60
2023-01-19T04:32:37.235Z,4.50
2023-01-19T04:35:04.262Z,4.50
2023-01-19T04:37:30.932Z,4.40
2023-01-19T04:39:57.564Z,4.40
2023-01-19T04:42:24.323Z,4.30
2023-01-19T04:44:52.536Z,4.30
2023-01-19T04:47:19.691Z,4.40
2023-01-19T04:49:46.363Z,4.40
2023-01-19T04:52:13.014Z,4.40
2023-01-19T04:54:39.734Z,4.40
2023-01-19T04:57:06.527Z,4.40
2023-01-19T04:59:33.177Z,4.40
2023-01-19T05:01:59.939Z,4.30
2023-01-19T05:04:26.992Z,4.30
2023-01-19T05:06:54.325Z,4.30
2023-01-19T05:09:20.973Z,4.30
2023-01-19T05:11:47.834Z,4.30
2023-01-19T05:14:14.516Z,4.30
2023-01-19T05:16:41.231Z,4.30
2023-01-19T05:19:08.052Z,4.30
2023-01-19T05:21:34.760Z,4.30
2023-01-19T05:24:01.665Z,4.30
2023-01-19T05:26:28.515Z,4.30
2023-01-19T05:28:55.275Z,4.60
2023-01-19T05:31:22.128Z,4.30
2023-01-19T05:33:49.979Z,4.20
2023-01-19T05:36:16.711Z,4.20
2023-01-19T05:38:43.410Z,4.20
2023-01-19T05:41:10.310Z,4.20
2023-01-19T05:43:37.061Z,4.20
2023-01-19T05:46:05.342Z,4.20
2023-01-19T05:48:32.536Z,4.20
2023-01-19T05:51:00.343Z,4.20
2023-01-19T05:53:27.971Z,4.20
2023-01-19T05:56:00.438Z,4.20
2023-01-19T05:58:27.117Z,4.20
2023-01-19T06:00:53.862Z,4.10
2023-01-19T06:03:20.889Z,4.10
2023-01-19T06:05:47.699Z,4.10
2023-01-19T06:08:17.822Z,4.10
2023-01-19T06:10:44.687Z,4.10
2023-01-19T06:13:11.377Z,4.00
2023-01-19T06:15:38.129Z,4.20
2023-01-19T06:18:05.023Z,4.80
2023-01-19T06:20:31.872Z,3.90
2023-01-19T06:22:59.208Z,3.90
2023-01-19T06:25:26.207Z,3.90
2023-01-19T06:27:52.983Z,4.00
2023-01-19T06:30:20.108Z,4.00
2023-01-19T06:32:47.583Z,4.00
2023-01-19T06:35:15.051Z,4.00
2023-01-19T06:37:42.039Z,4.00
2023-01-19T06:40:09.685Z,4.00
2023-01-19T06:42:36.428Z,4.00
2023-01-19T06:45:03.544Z,4.00
2023-01-19T06:47:30.599Z,4.00
2023-01-19T06:49:57.545Z,4.00
2023-01-19T06:52:24.279Z,4.00
2023-01-19T06:54:51.067Z,4.10
2023-01-19T06:57:18.750Z,4.10
2023-01-19T06:59:45.714Z,4.10
2023-01-19T07:02:26.500Z,4.00
2023-01-19T07:04:55.178Z,4.00
2023-01-19T07:07:21.952Z,3.90
2023-01-19T07:09:48.608Z,3.90
2023-01-19T07:12:15.775Z,3.90
2023-01-19T07:14:42.860Z,3.90
2023-01-19T07:17:09.858Z,3.90
2023-01-19T07:19:36.676Z,4.00
2023-01-19T07:22:03.591Z,4.00
2023-01-19T07:24:31.076Z,3.90
2023-01-19T07:26:58.546Z,3.90
2023-01-19T07:29:25.380Z,4.00
2023-01-19T07:31:54.565Z,3.90
2023-01-19T07:34:21.564Z,3.90
2023-01-19T07:36:48.714Z,4.00
2023-01-19T07:39:15.660Z,4.00
2023-01-19T07:41:42.465Z,4.00
2023-01-19T07:44:09.517Z,4.00
2023-01-19T07:46:36.226Z,4.00
2023-01-19T07:49:03.146Z,3.90
2023-01-19T07:51:30.567Z,4.00
2023-01-19T07:53:58.139Z,3.90
2023-01-19T07:56:27.742Z,4.00
2023-01-19T07:59:03.341Z,3.90
2023-01-19T08:01:31.490Z,4.00
2023-01-19T08:03:58.704Z,4.00
2023-01-19T08:06:33.957Z,4.00
2023-01-19T08:09:01.263Z,3.80
2023-01-19T08:11:28.142Z,4.10
2023-01-19T08:13:55.167Z,4.00
2023-01-19T08:16:21.874Z,4.00
2023-01-19T08:18:48.616Z,4.00
2023-01-19T08:21:15.989Z,3.90
2023-01-19T08:23:43.074Z,3.90
2023-01-19T08:26:29.875Z,3.90
2023-01-19T08:28:59.303Z,3.90
2023-01-19T08:31:26.904Z,3.80
2023-01-19T08:33:54.766Z,3.80
2023-01-19T08:36:22.628Z,3.90
2023-01-19T08:38:49.890Z,4.00
2023-01-19T08:41:16.956Z,3.90
2023-01-19T08:43:45.437Z,3.90
2023-01-19T08:46:17.056Z,3.90
2023-01-19T08:48:45.191Z,3.90
2023-01-19T08:51:15.639Z,3.90
2023-01-19T08:53:42.987Z,3.90
2023-01-19T08:56:14.279Z,3.90
2023-01-19T08:58:43.163Z,4.00
2023-01-19T09:01:11.237Z,4.00
2023-01-19T09:03:38.031Z,4.80
2023-01-19T09:06:09.621Z,4.00
2023-01-19T09:08:36.390Z,4.00
2023-01-19T09:11:03.450Z,4.10
2023-01-19T09:13:30.561Z,4.20
2023-01-19T09:15:57.878Z,4.30
2023-01-19T09:18:24.789Z,4.20
2023-01-19T09:20:51.515Z,4.50
2023-01-19T09:23:20.701Z,4.30
2023-01-19T09:25:48.359Z,5.60
2023-01-19T09:28:17.582Z,4.40
2023-01-19T09:30:45.143Z,4.30
2023-01-19T09:33:15.196Z,4.30
2023-01-19T09:35:42.763Z,4.30
2023-01-19T09:38:10.645Z,4.30
2023-01-19T09:40:49.612Z,4.40
2023-01-19T09:43:47.457Z,4.50
2023-01-19T09:46:41.655Z,4.50
2023-01-19T09:49:21.554Z,4.60
2023-01-19T09:51:51.091Z,4.60
2023-01-19T09:54:44.201Z,6.00
2023-01-19T09:57:12.234Z,4.50
2023-01-19T09:59:41.389Z,4.60
2023-01-19T10:02:27.299Z,5.50
2023-01-19T10:05:18.893Z,4.70
2023-01-19T10:08:18.474Z,4.70
2023-01-19T10:10:53.331Z,4.60
2023-01-19T10:13:34.741Z,4.70
2023-01-19T10:16:01.772Z,4.70
2023-01-19T10:18:43.392Z,4.70
2023-01-19T10:21:18.170Z,4.70
2023-01-19T10:23:58.770Z,4.80
2023-01-19T10:26:33.904Z,4.80
2023-01-19T10:29:12.582Z,4.80
2023-01-19T10:31:42.106Z,4.90
2023-01-19T10:34:21.554Z,4.90
2023-01-19T10:36:55.485Z,4.90
2023-01-19T10:39:22.573Z,5.00
2023-01-19T10:41:53.996Z,4.90
2023-01-19T10:44:29.455Z,4.90
2023-01-19T10:46:58.773Z,5.10
2023-01-19T10:49:31.635Z,5.10
2023-01-19T10:51:59.691Z,5.10
2023-01-19T10:54:29.694Z,5.20
2023-01-19T10:57:03.501Z,5.30
2023-01-19T10:59:57.793Z,5.30
2023-01-19T11:02:30.609Z,5.40
2023-01-19T11:05:00.310Z,5.40
2023-01-19T11:07:29.842Z,5.30
2023-01-19T11:10:15.365Z,5.60
2023-01-19T11:12:54.987Z,5.30
2023-01-19T11:15:30.600Z,5.40
2023-01-19T11:17:58.182Z,5.40
2023-01-19T11:20:53.456Z,5.40
2023-01-19T11:23:31.242Z,5.50
2023-01-19T11:26:01.609Z,5.50
2023-01-19T11:28:45.885Z,5.60
2023-01-19T11:31:15.739Z,5.60
2023-01-19T11:33:52.813Z,5.60
2023-01-19T11:36:31.693Z,5.70
2023-01-19T11:39:20.377Z,5.70
2023-01-19T11:41:50.803Z,5.70
2023-01-19T11:44:25.503Z,5.70
2023-01-19T11:47:02.394Z,5.60
2023-01-19T11:49:51.985Z,5.70
2023-01-19T11:52:34.610Z,5.70
2023-01-19T11:55:24.918Z,5.70
2023-01-19T11:57:54.479Z,5.80
2023-01-19T12:00:43.252Z,5.70
2023-01-19T12:03:19.443Z,5.70
2023-01-19T12:05:50.132Z,5.80
2023-01-19T12:08:23.325Z,5.80
2023-01-19T12:10:52.845Z,5.90
2023-01-19T12:13:24.843Z,5.90
2023-01-19T12:16:04.956Z,6.00
2023-01-19T12:18:58.149Z,6.10
2023-01-19T12:21:24.969Z,6.00
2023-01-19T12:24:16.333Z,6.10
2023-01-19T12:26:45.813Z,6.00
2023-01-19T12:29:16.110Z,6.00
2023-01-19T12:31:43.439Z,6.00
2023-01-19T12:34:43.857Z,6.10
2023-01-19T12:37:32.598Z,6.10
2023-01-19T12:40:05.692Z,6.10
2023-01-19T12:42:34.128Z,6.10
2023-01-19T12:45:35.057Z,6.00
2023-01-19T12:48:03.910Z,6.10
2023-01-19T12:50:37.937Z,6.10
2023-01-19T12:53:15.804Z,6.10
2023-01-19T12:55:46.753Z,6.10
2023-01-19T12:58:25.224Z,7.10
2023-01-19T13:01:14.049Z,6.20
2023-01-19T13:03:58.673Z,6.10
2023-01-19T13:06:47.872Z,6.10
2023-01-19T13:09:35.992Z,6.10
2023-01-19T13:12:14.810Z,6.20
2023-01-19T13:14:43.353Z,6.20
2023-01-19T13:17:24.875Z,6.20
2023-01-19T13:20:21.820Z,6.20
2023-01-19T13:22:49.881Z,6.20
2023-01-19T13:25:33.651Z,6.20
2023-01-19T13:28:01.773Z,7.30
2023-01-19T13:30:30.690Z,6.20
2023-01-19T13:33:14.709Z,6.10
2023-01-19T13:35:50.157Z,6.10
2023-01-19T13:38:17.452Z,6.10
2023-01-19T13:40:44.624Z,6.10
2023-01-19T13:43:38.321Z,5.90
2023-01-19T13:46:06.133Z,6.10
2023-01-19T13:48:33.828Z,6.10
2023-01-19T13:51:06.722Z,6.70
2023-01-19T13:53:34.218Z,6.10
2023-01-19T13:56:22.172Z,6.20
2023-01-19T13:58:59.152Z,6.80
2023-01-19T14:01:29.330Z,6.10
2023-01-19T14:03:57.104Z,6.60
2023-01-19T14:06:44.905Z,6.10
2023-01-19T14:09:18.185Z,6.10
2023-01-19T14:12:03.560Z,6.10
2023-01-19T14:14:30.459Z,6.20
2023-01-19T14:16:57.598Z,6.20
2023-01-19T14:19:24.632Z,6.20
2023-01-19T14:22:00.161Z,6.10
2023-01-19T14:24:29.781Z,6.20
2023-01-19T14:27:07.927Z,6.20
2023-01-19T14:29:36.181Z,6.20
2023-01-19T14:32:18.510Z,6.10
2023-01-19T14:34:48.537Z,6.10
2023-01-19T14:37:17.436Z,6.10
2023-01-19T14:39:46.975Z,6.30
2023-01-19T14:42:35.853Z,6.20
2023-01-19T14:45:06.905Z,6.20
2023-01-19T14:47:43.732Z,6.20
2023-01-19T14:50:22.690Z,6.10
2023-01-19T14:52:55.975Z,6.00
2023-01-19T14:55:55.935Z,6.00
2023-01-19T14:58:25.136Z,6.10
2023-01-19T15:00:55.722Z,5.90
2023-01-19T15:03:26.822Z,6.00
2023-01-19T15:06:00.239Z,6.10
2023-01-19T15:08:37.604Z,6.10
2023-01-19T15:11:11.651Z,6.10
2023-01-19T15:13:39.385Z,6.10
2023-01-19T15:16:08.829Z,6.10
2023-01-19T15:18:36.210Z,6.10
2023-01-19T15:21:03.901Z,6.10
2023-01-19T15:23:37.828Z,6.00
2023-01-19T15:26:06.007Z,6.00
2023-01-19T15:28:33.322Z,6.10
2023-01-19T15:31:00.534Z,6.10
2023-01-19T15:33:32.033Z,6.10
2023-01-19T15:35:59.196Z,6.10
2023-01-19T15:38:26.613Z,6.10
2023-01-19T15:40:53.616Z,6.10
2023-01-19T15:43:21.380Z,6.20
2023-01-19T15:46:01.898Z,6.10
2023-01-19T15:48:28.937Z,6.10
2023-01-19T15:50:55.870Z,6.10
2023-01-19T15:53:27.187Z,6.10
2023-01-19T15:55:56.926Z,6.00
2023-01-19T15:58:24.647Z,6.00
2023-01-19T16:00:56.629Z,6.00
2023-01-19T16:03:24.535Z,5.90
2023-01-19T16:05:52.058Z,5.90
2023-01-19T16:08:18.921Z,5.90
2023-01-19T16:10:45.648Z,6.00
2023-01-19T16:13:12.776Z,6.00
2023-01-19T16:15:42.450Z,6.00
2023-01-19T16:18:09.426Z,6.00
2023-01-19T16:20:36.331Z,6.00
2023-01-19T16:23:14.423Z,6.00
2023-01-19T16:25:42.236Z,6.10
2023-01-19T16:28:09.059Z,6.10
2023-01-19T16:30:35.976Z,6.10
2023-01-19T16:33:02.746Z,6.20
2023-01-19T16:35:29.603Z,6.10
2023-01-19T16:37:56.339Z,6.20
2023-01-19T16:40:23.051Z,6.10
2023-01-19T16:42:49.755Z,6.10
2023-01-19T16:45:16.500Z,6.00
2023-01-19T16:47:45.375Z,6.10
2023-01-19T16:50:12.455Z,6.20
2023-01-19T16:52:39.610Z,6.10
2023-01-19T16:55:09.374Z,6.10
2023-01-19T16:57:39.247Z,6.10
2023-01-19T17:00:08.075Z,7.20
2023-01-19T17:02:35.148Z,6.00
2023-01-19T17:05:02.055Z,6.00
2023-01-19T17:07:29.067Z,5.90
2023-01-19T17:09:56.192Z,5.90
2023-01-19T17:12:23.151Z,5.80
2023-01-19T17:14:50.074Z,5.70
2023-01-19T17:17:16.767Z,6.70
2023-01-19T17:19:45.071Z,5.80
2023-01-19T17:22:13.207Z,5.80
2023-01-19T17:24:42.483Z,5.90
2023-01-19T17:27:10.450Z,5.80
2023-01-19T17:29:37.131Z,5.80
2023-01-19T17:32:04.293Z,5.90
2023-01-19T17:34:31.025Z,5.70
2023-01-19T17:37:02.960Z,5.70
2023-01-19T17:39:30.030Z,5.60
2023-01-19T17:41:56.876Z,5.60
2023-01-19T17:44:23.849Z,5.60
2023-01-19T17:46:50.775Z,5.60
2023-01-19T17:49:17.531Z,5.70
2023-01-19T17:51:44.240Z,5.80
2023-01-19T17:54:11.351Z,5.80
2023-01-19T17:56:38.889Z,5.80
2023-01-19T17:59:07.806Z,6.80
2023-01-19T18:01:38.405Z,5.80
2023-01-19T18:04:06.557Z,5.80
2023-01-19T18:06:33.882Z,5.70
2023-01-19T18:09:00.654Z,5.80
2023-01-19T18:11:28.451Z,5.70
2023-01-19T18:13:55.173Z,5.70
2023-01-19T18:16:25.026Z,5.60
2023-01-19T18:18:53.721Z,5.60
2023-01-19T18:21:22.018Z,5.40
2023-01-19T18:23:50.431Z,5.40
2023-01-19T18:26:20.743Z,5.50
2023-01-19T18:28:48.109Z,5.50
2023-01-19T18:31:17.577Z,6.30
2023-01-19T18:33:45.732Z,5.40
2023-01-19T18:36:12.738Z,5.30
2023-01-19T18:38:40.181Z,5.40
2023-01-19T18:41:11.885Z,5.30
2023-01-19T18:43:39.051Z,5.30
2023-01-19T18:46:10.355Z,5.30
2023-01-19T18:48:37.926Z,5.40
2023-01-19T18:51:12.795Z,5.30
2023-01-19T18:53:39.955Z,5.30
2023-01-19T18:56:07.458Z,5.40
2023-01-19T18:58:37.920Z,5.40
2023-01-19T19:01:16.333Z,5.40
2023-01-19T19:03:43.877Z,5.40
2023-01-19T19:06:11.624Z,5.30
2023-01-19T19:08:38.412Z,7.20
2023-01-19T19:11:08.863Z,5.40
2023-01-19T19:13:35.889Z,5.40
2023-01-19T19:16:07.847Z,5.40
2023-01-19T19:18:36.158Z,5.40
2023-01-19T19:21:10.694Z,5.30
2023-01-19T19:23:37.967Z,5.30
2023-01-19T19:26:09.659Z,5.30
2023-01-19T19:28:37.784Z,5.30
2023-01-19T19:31:10.652Z,5.30
2023-01-19T19:33:38.772Z,5.20
2023-01-19T19:36:07.031Z,5.20
2023-01-19T19:38:37.332Z,5.20
2023-01-19T19:41:08.723Z,5.20
2023-01-19T19:43:36.162Z,5.30
2023-01-19T19:46:04.359Z,5.40
2023-01-19T19:48:31.354Z,5.50
2023-01-19T19:51:17.499Z,5.30
2023-01-19T19:53:46.035Z,5.30
2023-01-19T19:56:13.510Z,5.30
2023-01-19T19:58:42.021Z,5.30
2023-01-19T20:01:20.827Z,5.20
2023-01-19T20:03:48.321Z,5.30
2023-01-19T20:06:20.752Z,5.40
2023-01-19T20:08:52.846Z,5.30
2023-01-19T20:11:37.447Z,5.40
2023-01-19T20:14:08.804Z,5.40
2023-01-19T20:16:36.024Z,6.00
2023-01-19T20:19:03.301Z,5.40
2023-01-19T20:21:32.788Z,5.40
2023-01-19T20:24:01.897Z,5.40
2023-01-19T20:26:31.438Z,5.40
2023-01-19T20:29:10.335Z,5.40
2023-01-19T20:31:41.781Z,5.40
2023-01-19T20:34:10.396Z,5.50
2023-01-19T20:36:37.678Z,5.50
2023-01-19T20:39:09.537Z,5.50
2023-01-19T20:41:43.210Z,5.50
2023-01-19T20:44:14.950Z,5.50
2023-01-19T20:46:42.468Z,5.50
2023-01-19T20:49:09.379Z,5.50
2023-01-19T20:51:37.389Z,5.50
2023-01-19T20:54:04.332Z,5.40
2023-01-19T20:56:33.466Z,5.40
2023-01-19T20:59:02.199Z,5.50
2023-01-19T21:01:28.964Z,5.50
2023-01-19T21:03:56.407Z,5.50
2023-01-19T21:06:23.312Z,5.40
2023-01-19T21:08:50.196Z,5.50
2023-01-19T21:11:20.732Z,5.50
2023-01-19T21:13:48.512Z,5.40
2023-01-19T21:16:15.718Z,5.40
2023-01-19T21:18:42.874Z,5.50
2023-01-19T21:21:20.845Z,5.50
2023-01-19T21:24:00.592Z,6.80
2023-01-19T21:26:29.875Z,5.50
2023-01-19T21:29:01.158Z,5.60
2023-01-19T21:31:31.744Z,5.50
2023-01-19T21:33:58.853Z,5.50
2023-01-19T21:36:25.857Z,5.60
2023-01-19T21:38:52.761Z,5.50
2023-01-19T21:41:19.732Z,5.40
2023-01-19T21:43:47.028Z,5.40
2023-01-19T21:46:20.840Z,6.20
2023-01-19T21:48:48.039Z,5.40
2023-01-19T21:51:15.596Z,5.40
2023-01-19T21:53:42.468Z,5.50
2023-01-19T21:56:10.342Z,5.50
2023-01-19T21:58:38.106Z,5.80
2023-01-19T22:01:09.789Z,5.50
2023-01-19T22:03:36.839Z,5.50
2023-01-19T22:06:09.267Z,5.50
2023-01-19T22:08:36.832Z,5.50
2023-01-19T22:11:05.507Z,5.50
2023-01-19T22:13:33.394Z,5.60
2023-01-19T22:16:05.626Z,5.60
2023-01-19T22:18:33.193Z,5.60
2023-01-19T22:21:14.764Z,5.50
2023-01-19T22:23:42.383Z,6.20
2023-01-19T22:26:10.474Z,5.50
2023-01-19T22:28:37.829Z,5.70
2023-01-19T22:31:05.799Z,7.00
2023-01-19T22:33:32.629Z,5.50
2023-01-19T22:36:25.757Z,5.50
2023-01-19T22:38:54.871Z,5.50
2023-01-19T22:41:41.932Z,5.50
2023-01-19T22:44:12.457Z,4.80
2023-01-19T22:46:39.374Z,6.30
2023-01-19T22:49:07.974Z,5.40
2023-01-19T22:51:35.609Z,5.50
2023-01-19T22:54:03.004Z,5.50
2023-01-19T22:56:31.758Z,5.50
2023-01-19T22:58:59.199Z,6.20
2023-01-19T23:01:33.741Z,5.40
2023-01-19T23:04:02.385Z,5.40
2023-01-19T23:06:31.328Z,5.40
2023-01-19T23:09:01.118Z,5.30
2023-01-19T23:11:33.201Z,5.30
2023-01-19T23:14:01.607Z,5.40
2023-01-19T23:16:28.395Z,5.40
2023-01-19T23:19:12.269Z,5.40
2023-01-19T23:21:39.494Z,5.40
2023-01-19T23:24:06.785Z,5.40
2023-01-19T23:26:40.156Z,5.30
2023-01-19T23:29:11.649Z,5.30
2023-01-19T23:31:42.215Z,5.30
2023-01-19T23:34:10.644Z,5.40
2023-01-19T23:36:39.133Z,5.40
2023-01-19T23:39:11.907Z,5.50
2023-01-19T23:41:38.700Z,5.50
2023-01-19T23:44:05.574Z,5.40
2023-01-19T23:46:32.373Z,5.40
2023-01-19T23:48:59.097Z,5.40
2023-01-19T23:51:29.275Z,5.40
2023-01-19T23:53:57.168Z,5.30
2023-01-19T23:56:26.207Z,5.20
2023-01-19T23:59:10.234Z,5.20
